createdAt,value
2019-05-25T00:02:10.340Z,13.27
2019-05-25T00:04:37.569Z,13.28
2019-05-25T00:07:04.778Z,13.26
2019-05-25T00:09:31.955Z,13.23
2019-05-25T00:11:59.472Z,13.24
2019-05-25T00:14:26.671Z,13.11
2019-05-25T00:16:53.862Z,13.09
2019-05-25T00:19:21.071Z,13.01
2019-05-25T00:21:48.816Z,12.98
2019-05-25T00:24:16.015Z,12.84
2019-05-25T00:26:43.253Z,12.89
2019-05-25T00:29:10.504Z,12.78
2019-05-25T00:31:38.109Z,12.57
2019-05-25T00:34:05.304Z,12.67
2019-05-25T00:36:32.488Z,12.61
2019-05-25T00:38:59.672Z,12.63
2019-05-25T00:41:27.330Z,12.56
2019-05-25T00:43:54.525Z,12.55
2019-05-25T00:46:21.760Z,12.45
2019-05-25T00:48:49.036Z,12.37
2019-05-25T00:51:16.532Z,12.39
2019-05-25T00:53:43.732Z,12.53
2019-05-25T00:56:10.934Z,12.46
2019-05-25T00:58:38.127Z,12.36
2019-05-25T01:01:05.862Z,12.31
2019-05-25T01:03:33.209Z,12.37
2019-05-25T01:06:00.450Z,12.25
2019-05-25T01:08:27.654Z,12.34
2019-05-25T01:10:55.370Z,12.29
2019-05-25T01:13:22.569Z,12.04
2019-05-25T01:15:49.764Z,12.22
2019-05-25T01:18:16.975Z,12.22
2019-05-25T01:20:44.654Z,12.18
2019-05-25T01:23:11.888Z,12.20
2019-05-25T01:25:39.083Z,12.29
2019-05-25T01:28:06.272Z,12.22
2019-05-25T01:30:33.855Z,12.16
2019-05-25T01:33:01.091Z,12.06
2019-05-25T01:35:28.302Z,12.02
2019-05-25T01:37:55.499Z,12.04
2019-05-25T01:40:23.101Z,11.97
2019-05-25T01:42:50.305Z,12.03
2019-05-25T01:45:17.629Z,12.11
2019-05-25T01:47:44.837Z,12.04
2019-05-25T01:50:13.511Z,12.06
2019-05-25T01:52:40.714Z,11.63
2019-05-25T01:55:08.467Z,11.79
2019-05-25T01:57:35.661Z,11.94
2019-05-25T02:00:05.002Z,12.00
2019-05-25T02:02:32.219Z,11.86
2019-05-25T02:04:59.436Z,12.00
2019-05-25T02:07:26.638Z,11.97
2019-05-25T02:09:54.252Z,11.94
2019-05-25T02:12:21.606Z,11.96
2019-05-25T02:14:48.814Z,11.88
2019-05-25T02:17:16.057Z,11.84
2019-05-25T02:19:43.570Z,11.78
2019-05-25T02:22:10.760Z,11.77
2019-05-25T02:24:37.969Z,11.73
2019-05-25T02:27:05.217Z,11.68
2019-05-25T02:29:32.834Z,11.65
2019-05-25T02:32:00.561Z,11.54
2019-05-25T02:34:27.754Z,11.48
2019-05-25T02:36:54.942Z,11.49
2019-05-25T02:39:22.530Z,11.54
2019-05-25T02:41:49.744Z,11.49
2019-05-25T02:44:16.947Z,11.49
2019-05-25T02:46:44.461Z,11.48
2019-05-25T02:49:11.683Z,11.50
2019-05-25T02:51:38.860Z,11.58
2019-05-25T02:54:06.095Z,11.64
2019-05-25T02:56:33.711Z,11.40
2019-05-25T02:59:00.934Z,11.39
2019-05-25T03:01:28.267Z,11.65
2019-05-25T03:03:55.458Z,11.78
2019-05-25T03:06:23.084Z,11.93
2019-05-25T03:08:52.077Z,11.94
2019-05-25T03:11:20.073Z,12.16
2019-05-25T03:13:47.775Z,12.24
2019-05-25T03:16:15.390Z,11.93
2019-05-25T03:18:42.639Z,11.85
2019-05-25T03:21:09.840Z,12.16
2019-05-25T03:23:37.125Z,11.85
2019-05-25T03:26:04.685Z,12.01
2019-05-25T03:28:31.942Z,11.93
2019-05-25T03:30:59.159Z,11.83
2019-05-25T03:33:26.777Z,11.77
2019-05-25T03:35:54.472Z,12.02
2019-05-25T03:38:21.726Z,12.05
2019-05-25T03:40:48.937Z,11.80
2019-05-25T03:43:16.131Z,12.16
2019-05-25T03:45:44.031Z,12.32
2019-05-25T03:48:11.243Z,12.42
2019-05-25T03:50:38.455Z,12.33
2019-05-25T03:53:05.698Z,12.39
2019-05-25T03:55:33.182Z,12.45
2019-05-25T03:58:00.369Z,12.56
2019-05-25T04:00:32.826Z,12.27
2019-05-25T04:03:00.002Z,12.27
2019-05-25T04:05:27.594Z,12.22
2019-05-25T04:07:54.826Z,12.46
2019-05-25T04:10:22.032Z,12.61
2019-05-25T04:12:49.221Z,12.50
2019-05-25T04:15:16.832Z,12.26
2019-05-25T04:17:44.032Z,12.20
2019-05-25T04:20:11.434Z,12.40
2019-05-25T04:22:38.685Z,12.59
2019-05-25T04:25:06.495Z,12.30
2019-05-25T04:27:33.670Z,12.37
2019-05-25T04:30:00.947Z,12.38
2019-05-25T04:32:28.167Z,12.36
2019-05-25T04:34:56.138Z,12.26
2019-05-25T04:37:23.348Z,12.01
2019-05-25T04:39:50.667Z,12.20
2019-05-25T04:42:17.851Z,12.09
2019-05-25T04:44:45.543Z,12.16
2019-05-25T04:47:26.077Z,12.19
2019-05-25T04:49:41.939Z,12.26
2019-05-25T04:52:09.176Z,12.30
2019-05-25T04:54:36.823Z,12.19
2019-05-25T04:57:04.625Z,11.98
2019-05-25T04:59:31.896Z,12.40
2019-05-25T05:01:59.098Z,12.41
2019-05-25T05:04:26.647Z,12.73
2019-05-25T05:06:53.849Z,12.92
2019-05-25T05:09:21.040Z,13.24
2019-05-25T05:11:48.236Z,12.73
2019-05-25T05:14:15.911Z,13.17
2019-05-25T05:16:43.099Z,13.31
2019-05-25T05:19:10.300Z,13.37
2019-05-25T05:21:37.498Z,13.57
2019-05-25T05:24:06.127Z,12.98
2019-05-25T05:26:33.333Z,12.95
2019-05-25T05:29:00.599Z,12.60
2019-05-25T05:31:27.808Z,13.26
2019-05-25T05:33:55.001Z,13.63
2019-05-25T05:36:23.379Z,13.54
2019-05-25T05:38:52.058Z,13.65
2019-05-25T05:41:21.035Z,13.75
2019-05-25T05:43:49.643Z,14.06
2019-05-25T05:46:19.351Z,14.07
2019-05-25T05:48:49.612Z,14.05
2019-05-25T05:51:19.497Z,14.40
2019-05-25T05:53:48.991Z,14.44
2019-05-25T05:56:16.193Z,14.38
2019-05-25T05:58:43.487Z,13.55
2019-05-25T06:01:11.063Z,13.44
2019-05-25T06:03:38.267Z,13.91
2019-05-25T06:06:05.487Z,14.36
2019-05-25T06:08:32.684Z,14.55
2019-05-25T06:11:00.298Z,14.57
2019-05-25T06:13:27.483Z,14.51
2019-05-25T06:15:56.074Z,14.35
2019-05-25T06:18:23.611Z,14.05
2019-05-25T06:20:51.579Z,13.62
2019-05-25T06:23:18.779Z,13.04
2019-05-25T06:25:45.961Z,13.56
2019-05-25T06:28:13.393Z,13.71
2019-05-25T06:30:41.015Z,14.14
2019-05-25T06:33:08.192Z,13.78
2019-05-25T06:35:35.408Z,14.24
2019-05-25T06:38:03.153Z,13.85
2019-05-25T06:40:30.814Z,13.71
2019-05-25T06:42:58.030Z,14.16
2019-05-25T06:45:25.228Z,14.00
2019-05-25T06:47:52.826Z,14.53
2019-05-25T06:50:20.255Z,14.45
2019-05-25T06:52:47.428Z,14.40
2019-05-25T06:55:14.620Z,13.72
2019-05-25T06:57:43.863Z,13.57
2019-05-25T07:00:11.865Z,13.42
2019-05-25T07:02:39.065Z,13.32
2019-05-25T07:05:07.719Z,13.89
2019-05-25T07:07:35.368Z,14.71
2019-05-25T07:10:02.695Z,13.83
2019-05-25T07:12:29.920Z,14.20
2019-05-25T07:14:57.121Z,14.75
2019-05-25T07:17:24.770Z,14.63
2019-05-25T07:19:52.086Z,14.46
2019-05-25T07:22:19.296Z,13.71
2019-05-25T07:24:46.488Z,14.23
2019-05-25T07:27:14.172Z,14.57
2019-05-25T07:29:41.380Z,14.27
2019-05-25T07:32:08.588Z,14.03
2019-05-25T07:34:36.179Z,14.04
2019-05-25T07:37:03.832Z,14.06
2019-05-25T07:39:31.469Z,14.57
2019-05-25T07:41:58.683Z,14.47
2019-05-25T07:44:25.924Z,13.72
2019-05-25T07:46:53.456Z,13.99
2019-05-25T07:49:20.717Z,14.56
2019-05-25T07:51:47.934Z,14.16
2019-05-25T07:54:15.128Z,14.41
2019-05-25T07:56:42.746Z,14.84
2019-05-25T07:59:09.957Z,14.61
2019-05-25T08:01:37.161Z,14.84
2019-05-25T08:04:04.377Z,14.96
2019-05-25T08:06:31.961Z,15.29
2019-05-25T08:08:59.173Z,15.45
2019-05-25T08:11:26.865Z,16.47
2019-05-25T08:13:54.065Z,16.27
2019-05-25T08:16:21.533Z,15.11
2019-05-25T08:18:48.751Z,16.27
2019-05-25T08:21:15.973Z,16.90
2019-05-25T08:23:43.185Z,16.06
2019-05-25T08:26:10.379Z,14.93
2019-05-25T08:28:37.601Z,15.66
2019-05-25T08:31:04.900Z,15.41
2019-05-25T08:33:32.541Z,15.64
2019-05-25T08:35:59.736Z,16.31
2019-05-25T08:38:26.921Z,16.45
2019-05-25T08:40:54.197Z,16.14
2019-05-25T08:43:21.721Z,15.12
2019-05-25T08:45:48.922Z,16.01
2019-05-25T08:48:16.141Z,15.64
2019-05-25T08:50:43.351Z,18.18
2019-05-25T08:53:10.841Z,19.37
2019-05-25T08:55:38.433Z,19.30
2019-05-25T08:58:05.642Z,18.05
2019-05-25T09:00:32.837Z,17.59
2019-05-25T09:03:00.462Z,18.16
2019-05-25T09:05:27.713Z,19.59
2019-05-25T09:07:55.011Z,18.62
2019-05-25T09:10:22.282Z,19.97
2019-05-25T09:12:49.869Z,19.07
2019-05-25T09:15:17.268Z,17.82
2019-05-25T09:17:44.568Z,16.47
2019-05-25T09:20:12.351Z,18.82
2019-05-25T09:22:39.878Z,19.88
2019-05-25T09:25:08.373Z,20.27
2019-05-25T09:27:35.566Z,19.11
2019-05-25T09:30:03.202Z,18.75
2019-05-25T09:32:30.438Z,18.93
2019-05-25T09:34:57.622Z,18.35
2019-05-25T09:37:25.233Z,18.31
2019-05-25T09:39:52.505Z,18.13
2019-05-25T09:42:19.781Z,18.87
2019-05-25T09:44:46.974Z,19.50
2019-05-25T09:47:14.682Z,18.31
2019-05-25T09:49:41.873Z,18.31
2019-05-25T09:52:09.101Z,17.36
2019-05-25T09:54:36.625Z,16.66
2019-05-25T09:57:03.918Z,16.57
2019-05-25T09:59:31.101Z,18.18
2019-05-25T10:01:58.788Z,17.93
2019-05-25T10:04:25.989Z,18.19
2019-05-25T10:06:53.197Z,17.33
2019-05-25T10:09:20.400Z,18.21
2019-05-25T10:11:48.013Z,19.43
2019-05-25T10:14:15.201Z,19.97
2019-05-25T10:16:42.412Z,21.47
2019-05-25T10:19:09.611Z,22.19
2019-05-25T10:21:37.193Z,19.55
2019-05-25T10:24:04.461Z,20.67
2019-05-25T10:26:31.662Z,21.28
2019-05-25T10:28:58.872Z,21.14
2019-05-25T10:31:26.429Z,21.17
2019-05-25T10:33:53.638Z,20.33
2019-05-25T10:36:20.835Z,22.17
2019-05-25T10:38:48.070Z,20.16
2019-05-25T10:41:15.682Z,19.24
2019-05-25T10:43:43.807Z,18.37
2019-05-25T10:46:11.054Z,19.33
2019-05-25T10:48:38.655Z,19.50
2019-05-25T10:51:05.846Z,19.38
2019-05-25T10:53:33.065Z,18.54
2019-05-25T10:56:00.522Z,19.17
2019-05-25T10:58:27.745Z,19.15
2019-05-25T11:00:54.947Z,19.46
2019-05-25T11:03:22.155Z,19.83
2019-05-25T11:05:49.629Z,19.41
2019-05-25T11:08:17.170Z,19.72
2019-05-25T11:10:44.398Z,20.08
2019-05-25T11:13:11.666Z,20.17
2019-05-25T11:15:38.865Z,18.98
2019-05-25T11:18:06.084Z,19.04
2019-05-25T11:20:33.350Z,19.00
2019-05-25T11:23:01.015Z,19.01
2019-05-25T11:25:30.890Z,18.51
2019-05-25T11:27:59.592Z,18.53
2019-05-25T11:30:26.841Z,18.75
2019-05-25T11:32:54.350Z,18.27
2019-05-25T11:35:21.753Z,19.42
2019-05-25T11:37:48.993Z,19.47
2019-05-25T11:40:17.047Z,20.50
2019-05-25T11:42:44.622Z,20.64
2019-05-25T11:45:12.220Z,19.84
2019-05-25T11:47:41.575Z,19.72
2019-05-25T11:50:09.675Z,19.94
2019-05-25T11:52:36.944Z,19.57
2019-05-25T11:55:05.046Z,18.88
2019-05-25T11:57:32.264Z,20.72
2019-05-25T11:59:59.483Z,18.46
2019-05-25T12:02:26.671Z,19.33
2019-05-25T12:04:54.255Z,19.06
2019-05-25T12:07:21.456Z,18.57
2019-05-25T12:09:48.623Z,18.91
2019-05-25T12:12:15.940Z,19.45
2019-05-25T12:14:43.455Z,20.53
2019-05-25T12:17:10.668Z,20.11
2019-05-25T12:19:37.882Z,19.37
2019-05-25T12:22:05.206Z,19.67
2019-05-25T12:24:32.892Z,20.51
2019-05-25T12:27:00.123Z,19.97
2019-05-25T12:29:27.353Z,18.88
2019-05-25T12:32:03.634Z,18.97
2019-05-25T12:34:23.658Z,18.73
2019-05-25T12:36:50.999Z,19.71
2019-05-25T12:39:19.624Z,20.07
2019-05-25T12:41:47.292Z,20.59
2019-05-25T12:44:14.484Z,19.75
2019-05-25T12:46:42.015Z,19.26
2019-05-25T12:49:09.708Z,18.93
2019-05-25T12:51:36.927Z,18.64
2019-05-25T12:54:04.124Z,20.87
2019-05-25T12:56:31.325Z,21.87
2019-05-25T12:58:59.254Z,20.55
2019-05-25T13:01:26.452Z,21.46
2019-05-25T13:03:53.643Z,21.54
2019-05-25T13:06:20.852Z,22.02
2019-05-25T13:08:48.331Z,21.34
2019-05-25T13:11:15.511Z,20.57
2019-05-25T13:13:42.756Z,20.35
2019-05-25T13:16:10.053Z,19.67
2019-05-25T13:18:37.555Z,19.41
2019-05-25T13:21:04.796Z,21.54
2019-05-25T13:23:32.014Z,22.07
2019-05-25T13:25:59.212Z,22.73
2019-05-25T13:28:26.884Z,22.36
2019-05-25T13:30:54.080Z,23.74
2019-05-25T13:33:21.287Z,23.38
2019-05-25T13:35:48.500Z,23.56
2019-05-25T13:38:16.004Z,25.65
2019-05-25T13:40:43.201Z,24.52
2019-05-25T13:43:10.498Z,25.92
2019-05-25T13:45:37.804Z,22.45
2019-05-25T13:48:05.644Z,21.18
2019-05-25T13:50:32.844Z,19.66
2019-05-25T13:53:00.069Z,20.23
2019-05-25T13:55:27.271Z,21.52
2019-05-25T13:57:54.937Z,22.17
2019-05-25T14:00:22.155Z,21.14
2019-05-25T14:02:49.356Z,21.21
2019-05-25T14:05:17.373Z,21.34
2019-05-25T14:07:44.577Z,21.26
2019-05-25T14:10:12.262Z,21.44
2019-05-25T14:12:39.516Z,22.58
2019-05-25T14:15:07.504Z,22.79
2019-05-25T14:17:34.754Z,21.22
2019-05-25T14:20:01.995Z,20.53
2019-05-25T14:22:29.191Z,19.52
2019-05-25T14:24:56.671Z,21.02
2019-05-25T14:27:23.920Z,20.51
2019-05-25T14:29:51.134Z,22.04
2019-05-25T14:32:18.340Z,23.24
2019-05-25T14:34:46.058Z,22.84
2019-05-25T14:37:13.253Z,22.75
2019-05-25T14:39:40.453Z,23.29
2019-05-25T14:42:09.771Z,23.93
2019-05-25T14:44:37.005Z,22.31
2019-05-25T14:47:04.336Z,21.81
2019-05-25T14:49:32.160Z,21.29
2019-05-25T14:51:59.811Z,22.07
2019-05-25T14:54:27.021Z,23.47
2019-05-25T14:56:54.571Z,24.65
2019-05-25T14:59:21.745Z,23.71
2019-05-25T15:02:02.135Z,22.54
2019-05-25T15:04:18.329Z,22.09
2019-05-25T15:06:45.520Z,22.25
2019-05-25T15:09:12.713Z,23.93
2019-05-25T15:11:40.248Z,23.38
2019-05-25T15:14:07.453Z,21.62
2019-05-25T15:16:34.881Z,21.04
2019-05-25T15:19:02.090Z,20.10
2019-05-25T15:21:29.732Z,20.10
2019-05-25T15:23:56.997Z,20.17
2019-05-25T15:26:24.218Z,19.84
2019-05-25T15:28:51.428Z,19.69
2019-05-25T15:31:18.734Z,18.95
2019-05-25T15:33:46.241Z,19.33
2019-05-25T15:36:13.490Z,19.30
2019-05-25T15:38:41.089Z,19.70
2019-05-25T15:41:08.333Z,19.65
2019-05-25T15:43:35.567Z,20.07
2019-05-25T15:46:02.791Z,19.82
2019-05-25T15:48:30.002Z,20.21
2019-05-25T15:50:57.309Z,20.18
2019-05-25T15:53:24.543Z,19.82
2019-05-25T15:55:52.309Z,20.01
2019-05-25T15:58:19.552Z,19.81
2019-05-25T16:00:48.513Z,20.21
2019-05-25T16:03:16.842Z,20.19
2019-05-25T16:05:47.460Z,20.85
2019-05-25T16:08:13.813Z,20.51
2019-05-25T16:10:41.025Z,20.40
2019-05-25T16:13:08.220Z,20.15
2019-05-25T16:15:37.370Z,20.11
2019-05-25T16:18:04.665Z,19.71
2019-05-25T16:20:31.877Z,20.32
2019-05-25T16:22:59.074Z,19.91
2019-05-25T16:25:26.299Z,20.09
2019-05-25T16:27:53.505Z,19.93
2019-05-25T16:30:20.804Z,20.05
2019-05-25T16:33:10.654Z,19.75
2019-05-25T16:35:17.514Z,19.73
2019-05-25T16:37:45.116Z,19.65
2019-05-25T16:40:14.014Z,19.86
2019-05-25T16:42:41.234Z,19.77
2019-05-25T16:45:08.963Z,19.90
2019-05-25T16:47:36.186Z,19.70
2019-05-25T16:50:04.278Z,19.47
2019-05-25T16:52:31.570Z,19.46
2019-05-25T16:54:58.853Z,19.43
2019-05-25T16:57:26.046Z,19.73
2019-05-25T16:59:53.520Z,19.65
2019-05-25T17:02:20.882Z,19.23
2019-05-25T17:04:48.081Z,19.63
2019-05-25T17:07:15.293Z,19.26
2019-05-25T17:09:42.485Z,19.21
2019-05-25T17:12:09.678Z,19.35
2019-05-25T17:14:36.898Z,19.43
2019-05-25T17:17:04.424Z,19.41
2019-05-25T17:19:31.637Z,19.74
2019-05-25T17:21:58.855Z,19.78
2019-05-25T17:24:26.143Z,19.01
2019-05-25T17:26:53.651Z,19.17
2019-05-25T17:29:20.862Z,19.22
2019-05-25T17:31:48.063Z,19.32
2019-05-25T17:34:15.275Z,19.45
2019-05-25T17:36:43.394Z,19.16
2019-05-25T17:39:10.618Z,19.25
2019-05-25T17:41:37.832Z,19.49
2019-05-25T17:44:05.050Z,19.40
2019-05-25T17:46:32.511Z,19.38
2019-05-25T17:48:59.693Z,19.39
2019-05-25T17:51:27.290Z,18.77
2019-05-25T17:53:54.605Z,19.06
2019-05-25T17:56:21.801Z,18.90
2019-05-25T17:58:49.015Z,18.93
2019-05-25T18:01:16.491Z,18.71
2019-05-25T18:03:43.733Z,19.12
2019-05-25T18:06:10.935Z,19.00
2019-05-25T18:08:38.232Z,18.93
2019-05-25T18:11:05.751Z,18.87
2019-05-25T18:13:32.963Z,19.15
2019-05-25T18:16:00.151Z,18.80
2019-05-25T18:18:27.352Z,19.11
2019-05-25T18:20:54.879Z,18.78
2019-05-25T18:23:22.071Z,18.64
2019-05-25T18:25:49.283Z,18.81
2019-05-25T18:28:16.459Z,18.85
2019-05-25T18:30:43.819Z,18.82
2019-05-25T18:33:11.055Z,18.68
2019-05-25T18:35:38.262Z,18.61
2019-05-25T18:38:05.871Z,18.55
2019-05-25T18:40:33.071Z,18.42
2019-05-25T18:43:00.287Z,18.67
2019-05-25T18:45:27.905Z,18.45
2019-05-25T18:47:55.387Z,18.27
2019-05-25T18:50:22.806Z,18.35
2019-05-25T18:52:50.132Z,18.32
2019-05-25T18:55:18.058Z,18.28
2019-05-25T18:57:45.668Z,18.18
2019-05-25T19:00:15.087Z,18.07
2019-05-25T19:02:42.308Z,17.62
2019-05-25T19:05:10.914Z,17.78
2019-05-25T19:07:38.128Z,17.64
2019-05-25T19:10:05.504Z,17.52
2019-05-25T19:12:32.712Z,17.58
2019-05-25T19:15:00.510Z,17.45
2019-05-25T19:17:27.720Z,17.29
2019-05-25T19:19:54.932Z,17.25
2019-05-25T19:22:22.120Z,17.21
2019-05-25T19:24:49.799Z,17.23
2019-05-25T19:27:17.011Z,17.09
2019-05-25T19:29:44.224Z,17.06
2019-05-25T19:32:11.418Z,16.91
2019-05-25T19:34:38.884Z,16.82
2019-05-25T19:37:06.284Z,16.74
2019-05-25T19:39:33.498Z,16.59
2019-05-25T19:42:01.176Z,16.54
2019-05-25T19:44:28.431Z,16.44
2019-05-25T19:46:55.612Z,16.33
2019-05-25T19:49:22.805Z,16.26
2019-05-25T19:51:50.024Z,16.16
2019-05-25T19:54:17.226Z,16.10
2019-05-25T19:56:44.530Z,15.87
2019-05-25T19:59:12.172Z,15.75
2019-05-25T20:01:39.425Z,15.83
2019-05-25T20:04:06.591Z,15.81
2019-05-25T20:06:33.797Z,15.72
2019-05-25T20:09:01.383Z,15.65
2019-05-25T20:11:29.981Z,15.58
2019-05-25T20:13:57.201Z,15.50
2019-05-25T20:16:25.210Z,15.34
2019-05-25T20:18:53.239Z,15.35
2019-05-25T20:21:20.572Z,15.29
2019-05-25T20:23:47.769Z,15.28
2019-05-25T20:26:14.968Z,15.20
2019-05-25T20:28:42.551Z,15.13
2019-05-25T20:31:09.796Z,15.07
2019-05-25T20:33:37.024Z,15.02
2019-05-25T20:36:04.238Z,14.97
2019-05-25T20:38:31.884Z,14.93
2019-05-25T20:40:59.090Z,14.93
2019-05-25T20:43:26.605Z,14.85
2019-05-25T20:45:54.108Z,14.81
2019-05-25T20:48:21.717Z,14.75
2019-05-25T20:50:48.920Z,14.76
2019-05-25T20:53:16.222Z,14.72
2019-05-25T20:55:43.434Z,14.66
2019-05-25T20:58:11.164Z,14.37
2019-05-25T21:00:38.365Z,14.55
2019-05-25T21:03:06.844Z,14.64
2019-05-25T21:05:49.185Z,14.54
2019-05-25T21:08:04.946Z,14.38
2019-05-25T21:10:32.141Z,14.51
2019-05-25T21:12:59.484Z,14.52
2019-05-25T21:15:27.180Z,14.48
2019-05-25T21:17:54.509Z,14.43
2019-05-25T21:20:21.881Z,14.44
2019-05-25T21:22:49.224Z,14.35
2019-05-25T21:25:17.244Z,14.33
2019-05-25T21:27:44.439Z,14.28
2019-05-25T21:30:11.749Z,14.25
2019-05-25T21:32:38.961Z,14.19
2019-05-25T21:35:07.841Z,14.13
2019-05-25T21:37:35.152Z,14.03
2019-05-25T21:40:02.355Z,14.01
2019-05-25T21:42:29.566Z,13.98
2019-05-25T21:44:56.769Z,13.92
2019-05-25T21:47:24.181Z,13.85
2019-05-25T21:49:51.711Z,13.92
2019-05-25T21:52:18.929Z,13.85
2019-05-25T21:54:46.315Z,13.77
2019-05-25T21:57:13.544Z,13.74
2019-05-25T21:59:40.824Z,13.70
2019-05-25T22:02:08.009Z,13.67
2019-05-25T22:04:35.214Z,13.61
2019-05-25T22:07:03.069Z,13.57
2019-05-25T22:09:30.241Z,13.55
2019-05-25T22:11:57.583Z,13.50
2019-05-25T22:14:25.441Z,13.44
2019-05-25T22:16:53.644Z,13.42
2019-05-25T22:19:22.153Z,13.40
2019-05-25T22:21:49.336Z,13.36
2019-05-25T22:24:16.533Z,13.34
2019-05-25T22:26:44.182Z,13.32
2019-05-25T22:29:11.380Z,13.31
2019-05-25T22:31:38.573Z,13.16
2019-05-25T22:34:06.065Z,13.14
2019-05-25T22:36:40.477Z,13.14
2019-05-25T22:39:04.334Z,13.10
2019-05-25T22:41:31.556Z,13.07
2019-05-25T22:43:58.764Z,13.10
2019-05-25T22:46:26.285Z,13.09
2019-05-25T22:48:53.517Z,12.93
2019-05-25T22:51:20.710Z,12.98
2019-05-25T22:53:48.276Z,12.98
2019-05-25T22:56:15.499Z,12.92
2019-05-25T22:58:42.702Z,12.89
2019-05-25T23:01:09.972Z,12.75
2019-05-25T23:03:37.675Z,12.71
2019-05-25T23:06:04.876Z,12.84
2019-05-25T23:08:32.045Z,12.92
2019-05-25T23:10:59.267Z,12.66
2019-05-25T23:13:26.865Z,12.80
2019-05-25T23:15:54.066Z,12.94
2019-05-25T23:18:21.315Z,12.87
2019-05-25T23:20:48.499Z,13.15
2019-05-25T23:23:15.984Z,13.20
2019-05-25T23:25:43.186Z,12.96
2019-05-25T23:28:10.390Z,12.90
2019-05-25T23:30:37.562Z,12.76
2019-05-25T23:33:05.143Z,12.81
2019-05-25T23:35:32.337Z,13.07
2019-05-25T23:38:03.319Z,12.79
2019-05-25T23:40:28.766Z,12.50
2019-05-25T23:42:56.383Z,12.46
2019-05-25T23:45:23.611Z,12.75
2019-05-25T23:47:50.815Z,12.99
2019-05-25T23:50:18.016Z,13.02
2019-05-25T23:52:45.222Z,12.96
2019-05-25T23:55:12.647Z,12.93
2019-05-25T23:57:39.938Z,12.55
